Time;durP1;ratioP1;P1;durP2;ratioP2;P2;SDS_P1;SDS_P2;PMS_P1;PMS_P2;Temp;Humidity;BMP_temperature;BMP_pressure;BME280_temperature;BME280_humidity;BME280_pressure;Samples;Min_cycle;Max_cycle;Signal;HPM_P1;HPM_P2
2022/03/30 00:01:21;;;;;;;24.75;12.40;;;6.60;99.90;;;;;;5111842;27;20047;-77
2022/03/30 00:03:46;;;;;;;25.30;11.80;;;6.60;99.90;;;;;;5112126;27;20054;-77
2022/03/30 00:06:12;;;;;;;25.23;12.05;;;6.60;99.90;;;;;;5111683;27;20039;-76
2022/03/30 00:08:38;;;;;;;29.35;13.82;;;6.50;99.90;;;;;;5130131;27;20043;-76
2022/03/30 00:11:03;;;;;;;25.52;12.80;;;6.50;99.90;;;;;;5130637;27;20520;-76
2022/03/30 00:13:29;;;;;;;30.23;13.18;;;6.50;99.90;;;;;;5130208;27;20133;-76
2022/03/30 00:15:55;;;;;;;25.25;12.80;;;6.50;99.90;;;;;;5111727;27;20050;-76
2022/03/30 00:18:21;;;;;;;28.55;13.23;;;6.50;99.90;;;;;;5111434;28;20047;-76
2022/03/30 00:20:47;;;;;;;25.92;13.95;;;6.50;99.90;;;;;;5095091;27;20448;-76
2022/03/30 00:23:13;;;;;;;27.98;14.70;;;6.50;99.90;;;;;;5111883;27;20043;-76
2022/03/30 00:25:39;;;;;;;27.00;14.15;;;6.40;99.90;;;;;;5111933;27;20062;-76
2022/03/30 00:28:05;;;;;;;33.50;14.05;;;6.40;99.90;;;;;;5106683;28;20547;-76
2022/03/30 00:30:31;;;;;;;26.20;13.32;;;6.40;99.90;;;;;;5091038;28;20054;-76
2022/03/30 00:32:56;;;;;;;26.75;13.45;;;6.40;99.90;;;;;;5091246;28;20131;-76
2022/03/30 00:35:22;;;;;;;27.30;14.15;;;6.40;99.90;;;;;;5090912;28;20130;-76
2022/03/30 00:37:48;;;;;;;24.40;12.85;;;6.40;99.90;;;;;;5091369;28;20051;-76
2022/03/30 00:40:16;;;;;;;33.17;15.10;;;6.40;99.90;;;;;;5108888;28;20039;-76
2022/03/30 00:42:42;;;;;;;28.23;13.90;;;6.40;99.90;;;;;;5090645;28;20052;-76
2022/03/30 00:45:14;;;;;;;30.65;13.30;;;6.30;99.90;;;;;;5090701;28;20044;-76
2022/03/30 00:47:41;;;;;;;31.60;15.18;;;6.40;99.90;;;;;;5094478;28;20076;-76
2022/03/30 00:50:12;;;;;;;25.45;13.18;;;6.40;99.90;;;;;;5095102;28;20470;-76
2022/03/30 00:52:38;;;;;;;22.42;13.65;;;6.40;99.90;;;;;;5113546;28;20097;-76
2022/03/30 00:55:05;;;;;;;31.42;12.70;;;6.30;99.90;;;;;;5094673;28;20039;-76
2022/03/30 00:57:32;;;;;;;26.15;12.48;;;6.30;99.90;;;;;;5078170;28;20236;-76
2022/03/30 00:59:58;;;;;;;24.15;11.65;;;6.30;99.90;;;;;;5095513;28;20456;-76
2022/03/30 01:02:25;;;;;;;24.90;12.02;;;6.30;99.90;;;;;;5094980;28;20046;-76
2022/03/30 01:04:51;;;;;;;30.25;12.05;;;6.30;99.90;;;;;;5094916;28;20039;-76
2022/03/30 01:07:17;;;;;;;26.50;12.93;;;6.30;99.90;;;;;;5112734;28;20093;-76
2022/03/30 01:09:43;;;;;;;28.52;13.40;;;6.30;99.90;;;;;;5113457;28;20587;-76
2022/03/30 01:12:10;;;;;;;34.30;14.18;;;6.30;99.90;;;;;;5113037;28;20039;-76
2022/03/30 01:14:37;;;;;;;24.40;13.25;;;6.40;99.90;;;;;;5094999;28;20051;-76
2022/03/30 01:17:04;;;;;;;29.02;12.43;;;6.40;99.90;;;;;;5094987;28;20390;-76
2022/03/30 01:19:32;;;;;;;25.63;12.43;;;6.40;99.90;;;;;;5112857;28;20058;-76
2022/03/30 01:21:59;;;;;;;24.10;12.82;;;6.40;99.90;;;;;;5113201;28;20566;-76
2022/03/30 01:24:25;;;;;;;22.05;10.60;;;6.40;99.90;;;;;;5113010;28;20417;-77
2022/03/30 01:26:51;;;;;;;27.42;10.70;;;6.40;99.90;;;;;;5112817;28;20094;-76
2022/03/30 01:34:45;;;;;;;21.52;11.57;;;6.40;99.90;;;;;;5114990;27;20565;-77
2022/03/30 01:37:12;;;;;;;24.73;10.88;;;6.40;99.90;;;;;;5114808;27;20039;-77
2022/03/30 01:39:39;;;;;;;21.05;11.18;;;6.40;99.90;;;;;;5132863;27;20112;-77
2022/03/30 01:42:04;;;;;;;25.63;11.90;;;6.40;99.90;;;;;;5113553;28;20057;-76
2022/03/30 01:44:31;;;;;;;33.78;12.35;;;6.40;99.90;;;;;;5131765;28;20133;-77
2022/03/30 01:46:57;;;;;;;27.23;12.02;;;6.40;99.90;;;;;;5113914;28;20111;-76
2022/03/30 01:49:23;;;;;;;25.17;12.15;;;6.40;99.90;;;;;;5096245;28;20047;-76
2022/03/30 01:51:49;;;;;;;25.38;12.10;;;6.40;99.90;;;;;;5131317;28;20039;-76
2022/03/30 01:54:16;;;;;;;28.70;12.90;;;6.40;99.90;;;;;;5131707;28;20042;-76
2022/03/30 01:56:42;;;;;;;37.88;14.70;;;6.40;99.90;;;;;;5131416;27;20068;-77
2022/03/30 01:59:08;;;;;;;26.42;13.60;;;6.30;99.90;;;;;;5096004;28;20051;-76
2022/03/30 02:01:33;;;;;;;30.35;13.13;;;6.30;99.90;;;;;;5130745;28;20043;-76
2022/03/30 02:04:00;;;;;;;29.65;14.15;;;6.30;99.90;;;;;;5131362;28;20057;-76
2022/03/30 02:06:26;;;;;;;28.40;13.15;;;6.30;99.90;;;;;;5131449;28;20055;-76
2022/03/30 02:08:52;;;;;;;24.65;13.10;;;6.30;99.90;;;;;;5113411;28;20058;-76
2022/03/30 02:11:18;;;;;;;26.13;12.82;;;6.30;99.90;;;;;;5112405;28;20541;-76
2022/03/30 02:13:44;;;;;;;27.15;12.68;;;6.20;99.90;;;;;;5131701;28;20452;-76
2022/03/30 02:16:09;;;;;;;31.17;12.75;;;6.20;99.90;;;;;;5131134;28;20043;-76
2022/03/30 02:18:35;;;;;;;32.10;13.15;;;6.20;99.90;;;;;;5130972;28;20047;-76
2022/03/30 02:21:01;;;;;;;34.13;15.15;;;6.20;99.90;;;;;;5130011;28;20043;-77
2022/03/30 02:23:27;;;;;;;32.40;13.73;;;6.20;99.90;;;;;;5112576;28;20047;-76
2022/03/30 02:25:52;;;;;;;24.45;12.20;;;6.20;99.90;;;;;;5112389;28;20043;-76
2022/03/30 02:28:18;;;;;;;19.15;9.98;;;6.20;99.90;;;;;;5130880;28;20089;-76
2022/03/30 02:30:44;;;;;;;6.82;3.05;;;6.20;99.90;;;;;;5131235;28;20039;-77
2022/03/30 02:33:10;;;;;;;4.03;1.10;;;6.20;99.90;;;;;;5112429;28;20043;-76
2022/03/30 02:35:35;;;;;;;1.55;0.43;;;6.30;99.90;;;;;;5130767;28;20051;-76
2022/03/30 02:38:01;;;;;;;2.95;0.40;;;6.30;99.90;;;;;;5130820;28;20741;-77
2022/03/30 02:40:26;;;;;;;1.95;0.60;;;6.30;99.90;;;;;;5112843;28;20101;-76
2022/03/30 02:42:52;;;;;;;5.53;1.03;;;6.30;99.90;;;;;;5069394;27;1748095;-77
2022/03/30 02:45:19;;;;;;;2.17;0.70;;;6.30;99.90;;;;;;5113103;27;20062;-76
2022/03/30 02:50:28;;;;;;;2.42;0.60;;;6.20;99.90;;;;;;5112954;27;20083;-77
2022/03/30 02:52:54;;;;;;;1.95;0.55;;;6.20;99.90;;;;;;5106855;27;20516;-76
2022/03/30 02:55:20;;;;;;;1.15;0.50;;;6.20;99.90;;;;;;5114660;27;20047;-77
2022/03/30 02:57:46;;;;;;;2.72;0.30;;;6.20;99.90;;;;;;5123039;27;20036;-77
2022/03/30 03:00:12;;;;;;;2.30;0.45;;;6.20;99.90;;;;;;5116365;27;20524;-76
2022/03/30 03:02:37;;;;;;;0.82;0.32;;;6.20;99.90;;;;;;5093065;28;20738;-76
2022/03/30 03:05:03;;;;;;;2.28;0.30;;;6.20;99.90;;;;;;5130212;27;20123;-77
2022/03/30 03:07:29;;;;;;;2.55;0.10;;;6.20;99.90;;;;;;5131292;27;20320;-77
2022/03/30 03:09:54;;;;;;;1.95;0.28;;;6.20;99.90;;;;;;5130389;27;20540;-77
2022/03/30 03:12:21;;;;;;;2.08;0.25;;;6.20;99.90;;;;;;5122126;27;20501;-76
2022/03/30 03:14:46;;;;;;;1.25;0.10;;;6.20;99.90;;;;;;5092668;28;20077;-77
2022/03/30 03:17:12;;;;;;;0.60;0.20;;;6.20;99.90;;;;;;5092472;28;20464;-76
2022/03/30 03:19:38;;;;;;;0.68;0.10;;;6.20;99.90;;;;;;5092190;28;20046;-77
2022/03/30 03:22:04;;;;;;;0.90;0.20;;;6.10;99.90;;;;;;5092423;28;20130;-76
2022/03/30 03:24:30;;;;;;;0.73;0.20;;;6.10;99.90;;;;;;5110661;28;20055;-77
2022/03/30 03:26:56;;;;;;;0.50;0.10;;;6.10;99.90;;;;;;5092358;28;20485;-76
2022/03/30 03:29:21;;;;;;;0.73;0.10;;;6.10;99.90;;;;;;5100473;27;20132;-76
2022/03/30 03:31:47;;;;;;;4.80;0.77;;;6.00;99.90;;;;;;5112210;27;20062;-77
2022/03/30 03:34:13;;;;;;;1.75;0.30;;;6.00;99.90;;;;;;5112809;27;20083;-76
2022/03/30 03:36:38;;;;;;;2.50;0.17;;;6.00;99.90;;;;;;5131002;27;20122;-76
2022/03/30 03:39:04;;;;;;;0.40;0.17;;;6.00;99.90;;;;;;5130794;27;20091;-76
2022/03/30 03:41:30;;;;;;;1.73;0.30;;;6.00;99.90;;;;;;5130483;27;20055;-76
2022/03/30 03:43:56;;;;;;;0.80;0.30;;;6.00;99.90;;;;;;5112536;27;20065;-76
2022/03/30 03:46:21;;;;;;;2.10;0.68;;;6.00;99.90;;;;;;5112133;27;20039;-76
2022/03/30 03:48:47;;;;;;;0.82;0.40;;;5.90;99.90;;;;;;5112594;27;20627;-77
2022/03/30 03:51:12;;;;;;;1.67;0.45;;;6.00;99.90;;;;;;5130477;27;20051;-77
2022/03/30 03:53:38;;;;;;;0.43;0.22;;;5.90;99.90;;;;;;5112135;27;20039;-76
2022/03/30 03:56:04;;;;;;;0.60;0.20;;;5.90;99.90;;;;;;5111354;27;20414;-76
2022/03/30 03:58:30;;;;;;;0.90;0.30;;;5.90;99.90;;;;;;5129309;27;20530;-77
2022/03/30 04:00:56;;;;;;;0.63;0.40;;;5.90;99.90;;;;;;5094173;27;20089;-76
2022/03/30 04:03:22;;;;;;;0.90;0.47;;;5.90;99.90;;;;;;5110958;27;20125;-76
2022/03/30 04:05:47;;;;;;;0.85;0.40;;;5.90;99.90;;;;;;5111521;27;20176;-76
2022/03/30 04:08:13;;;;;;;0.32;0.22;;;5.80;99.90;;;;;;5111002;27;20536;-76
2022/03/30 04:10:39;;;;;;;0.38;0.10;;;5.80;99.90;;;;;;5110683;27;20047;-77
2022/03/30 04:13:06;;;;;;;0.40;0.10;;;5.80;99.90;;;;;;5111282;27;20094;-76
2022/03/30 04:15:33;;;;;;;0.25;0.08;;;5.70;99.90;;;;;;5128565;27;20057;-77
2022/03/30 04:17:58;;;;;;;0.03;0.00;;;5.70;99.90;;;;;;5111626;28;20050;-76
2022/03/30 04:20:24;;;;;;;0.50;0.10;;;5.70;99.90;;;;;;5129946;27;20413;-77
2022/03/30 04:22:49;;;;;;;0.25;0.10;;;5.70;99.90;;;;;;5130587;27;20038;-76
2022/03/30 04:25:15;;;;;;;0.40;0.08;;;5.70;99.90;;;;;;5129741;27;20099;-77
2022/03/30 04:27:48;;;;;;;1.00;0.10;;;5.70;99.90;;;;;;5129684;27;20143;-77
2022/03/30 04:30:16;;;;;;;0.60;0.20;;;5.70;99.90;;;;;;5111745;27;20421;-76
2022/03/30 04:32:42;;;;;;;1.58;0.10;;;5.70;99.90;;;;;;5111887;28;20074;-76
2022/03/30 04:35:09;;;;;;;0.70;0.20;;;5.70;99.90;;;;;;5111587;28;20047;-77
2022/03/30 04:37:35;;;;;;;0.73;0.20;;;5.70;99.90;;;;;;5111558;28;20126;-77
2022/03/30 04:40:00;;;;;;;3.55;0.25;;;5.70;99.90;;;;;;5111099;28;20051;-76
2022/03/30 04:42:26;;;;;;;0.75;0.20;;;5.70;99.90;;;;;;5111361;28;20077;-76
2022/03/30 04:44:51;;;;;;;0.20;0.10;;;5.70;99.90;;;;;;5111737;28;20059;-76
2022/03/30 04:47:17;;;;;;;1.10;0.20;;;5.70;99.90;;;;;;5129845;28;20528;-76
2022/03/30 04:49:43;;;;;;;4.18;0.20;;;5.70;99.90;;;;;;5111393;28;20058;-76
2022/03/30 04:52:09;;;;;;;1.70;0.20;;;5.70;99.90;;;;;;5129916;28;20058;-77
2022/03/30 04:54:35;;;;;;;1.55;0.20;;;5.70;99.90;;;;;;5128188;28;20489;-76
2022/03/30 04:57:01;;;;;;;7.18;0.73;;;5.70;99.90;;;;;;5111694;28;20045;-77
2022/03/30 04:59:26;;;;;;;7.45;1.25;;;5.70;99.90;;;;;;5111534;28;20058;-76
2022/03/30 05:01:52;;;;;;;2.00;0.52;;;5.70;99.90;;;;;;5111483;28;20048;-76
2022/03/30 05:04:17;;;;;;;2.25;0.50;;;5.60;99.90;;;;;;5129549;28;20045;-76
2022/03/30 05:06:43;;;;;;;2.80;0.60;;;5.60;99.90;;;;;;5129749;28;20044;-76
2022/03/30 05:09:09;;;;;;;3.25;0.47;;;5.60;99.90;;;;;;5111316;28;20047;-76
2022/03/30 05:11:34;;;;;;;2.17;0.60;;;5.60;99.90;;;;;;5129484;28;20043;-76
2022/03/30 05:14:00;;;;;;;3.28;0.65;;;5.60;99.90;;;;;;5129710;28;20051;-77
2022/03/30 05:16:26;;;;;;;2.22;0.82;;;5.60;99.90;;;;;;5110850;28;20043;-76
2022/03/30 05:18:51;;;;;;;1.42;0.55;;;5.60;99.90;;;;;;5111058;28;20051;-76
2022/03/30 05:21:17;;;;;;;6.13;0.65;;;5.50;99.90;;;;;;5111427;28;20054;-76
2022/03/30 05:23:42;;;;;;;3.53;0.70;;;5.50;99.90;;;;;;5111421;28;20119;-76
2022/03/30 05:26:08;;;;;;;3.72;0.80;;;5.50;99.90;;;;;;5094008;28;20077;-76
2022/03/30 05:28:38;;;;;;;2.47;0.57;;;5.50;99.90;;;;;;5129230;28;20047;-76
2022/03/30 05:31:05;;;;;;;4.03;0.88;;;5.50;99.90;;;;;;5111315;28;20051;-76
2022/03/30 05:33:30;;;;;;;3.05;0.70;;;5.50;99.90;;;;;;5132166;27;20066;-76
2022/03/30 05:35:56;;;;;;;1.10;0.57;;;5.50;99.90;;;;;;5132799;27;20764;-76
2022/03/30 05:38:21;;;;;;;5.15;0.55;;;5.50;99.90;;;;;;5133194;27;20042;-76
2022/03/30 05:40:47;;;;;;;2.63;0.50;;;5.50;99.90;;;;;;5132756;27;21112;-76
2022/03/30 05:43:12;;;;;;;2.13;0.50;;;5.50;99.90;;;;;;5114482;27;20047;-76
2022/03/30 05:45:38;;;;;;;3.35;1.10;;;5.50;99.90;;;;;;5132523;27;20039;-76
2022/03/30 05:48:04;;;;;;;3.13;0.60;;;5.50;99.90;;;;;;5133037;27;20039;-76
2022/03/30 05:50:29;;;;;;;5.07;0.55;;;5.50;99.90;;;;;;5114424;27;20484;-77
2022/03/30 05:52:55;;;;;;;2.67;0.47;;;5.50;99.90;;;;;;5132951;27;20510;-77
2022/03/30 05:55:21;;;;;;;5.03;0.60;;;5.40;99.90;;;;;;5114521;27;20467;-77
2022/03/30 05:57:46;;;;;;;2.33;0.60;;;5.50;99.90;;;;;;5090494;27;20054;-76
2022/03/30 06:00:12;;;;;;;1.60;0.50;;;5.40;99.90;;;;;;5097007;28;20126;-76
2022/03/30 06:02:38;;;;;;;2.63;0.43;;;5.50;99.90;;;;;;5113038;27;20126;-76
2022/03/30 06:05:05;;;;;;;2.65;0.40;;;5.40;99.90;;;;;;5092551;28;20130;-76
2022/03/30 06:07:30;;;;;;;4.18;0.47;;;5.50;99.90;;;;;;5112033;28;20047;-76
2022/03/30 06:09:56;;;;;;;2.90;0.52;;;5.50;99.90;;;;;;5093538;28;20031;-76
2022/03/30 06:12:24;;;;;;;3.33;0.52;;;5.40;99.90;;;;;;5093348;28;20056;-75
2022/03/30 06:14:51;;;;;;;2.67;0.60;;;5.40;99.90;;;;;;5093815;28;20516;-76
2022/03/30 06:17:18;;;;;;;1.98;0.60;;;5.40;99.90;;;;;;5093970;28;20079;-76
2022/03/30 06:19:46;;;;;;;2.97;0.65;;;5.40;99.90;;;;;;5093600;28;20047;-76
2022/03/30 06:22:12;;;;;;;3.17;0.50;;;5.50;99.90;;;;;;5111590;28;20502;-76
2022/03/30 06:24:40;;;;;;;3.05;0.90;;;5.50;99.90;;;;;;5093495;28;20092;-76
2022/03/30 06:27:06;;;;;;;1.85;0.63;;;5.50;99.90;;;;;;5093573;28;20088;-76
2022/03/30 06:29:33;;;;;;;;;;;5.60;99.90;;;;;;5093394;28;20484;-76
2022/03/30 06:31:58;;;;;;;3.75;0.93;;;5.60;99.90;;;;;;5092999;28;19955;-76
2022/03/30 06:34:25;;;;;;;5.57;0.60;;;5.60;99.90;;;;;;5093517;28;20086;-76
2022/03/30 06:36:51;;;;;;;7.28;0.88;;;5.60;99.90;;;;;;5093082;28;20134;-76
2022/03/30 06:39:16;;;;;;;2.38;1.00;;;5.60;99.90;;;;;;5093247;28;20557;-76
2022/03/30 06:41:43;;;;;;;5.05;0.45;;;5.60;99.90;;;;;;5093012;28;20059;-76
2022/03/30 06:44:09;;;;;;;4.22;0.70;;;5.70;99.90;;;;;;5091875;28;20072;-76
2022/03/30 06:46:38;;;;;;;5.05;0.40;;;5.70;99.90;;;;;;5093076;28;20043;-76
2022/03/30 06:49:05;;;;;;;3.85;0.50;;;5.70;99.90;;;;;;5092782;28;20280;-76
2022/03/30 06:51:31;;;;;;;2.92;0.35;;;5.70;99.90;;;;;;5093317;28;20066;-76
2022/03/30 06:53:56;;;;;;;3.80;0.40;;;5.80;99.90;;;;;;5092969;28;20134;-76
2022/03/30 06:56:22;;;;;;;2.00;0.30;;;5.80;99.90;;;;;;5092270;28;20043;-76
2022/03/30 06:58:47;;;;;;;5.15;0.80;;;5.80;99.90;;;;;;5093055;28;20150;-76
2022/03/30 07:01:16;;;;;;;7.63;0.82;;;5.90;99.90;;;;;;5093073;28;20047;-76
2022/03/30 07:03:42;;;;;;;4.53;0.50;;;5.90;99.90;;;;;;5102944;27;20143;-76
2022/03/30 07:06:07;;;;;;;4.97;0.75;;;6.00;99.90;;;;;;5131511;27;20047;-76
2022/03/30 07:11:17;;;;;;;3.42;0.50;;;6.10;99.90;;;;;;5113040;27;20147;-76
2022/03/30 07:13:43;;;;;;;2.05;0.30;;;6.10;99.90;;;;;;5131593;27;20067;-76
2022/03/30 07:16:09;;;;;;;5.68;0.82;;;6.20;99.90;;;;;;5129699;27;20922;-76
2022/03/30 07:18:35;;;;;;;4.55;0.80;;;6.30;99.90;;;;;;5129783;27;20481;-76
2022/03/30 07:21:01;;;;;;;6.43;0.90;;;6.30;99.90;;;;;;5111774;27;20760;-76
2022/03/30 07:23:26;;;;;;;4.83;0.90;;;6.30;99.90;;;;;;5110964;27;20395;-76
2022/03/30 07:25:52;;;;;;;5.68;0.82;;;6.30;99.90;;;;;;5129783;27;20391;-76
2022/03/30 07:28:18;;;;;;;6.15;1.08;;;6.40;99.90;;;;;;5128864;27;20460;-76
2022/03/30 07:30:45;;;;;;;4.67;1.00;;;6.40;99.90;;;;;;5129106;27;20414;-76
2022/03/30 07:33:11;;;;;;;4.70;0.90;;;6.50;99.90;;;;;;5127846;27;20448;-76
2022/03/30 07:35:39;;;;;;;4.72;1.00;;;6.50;99.90;;;;;;5129397;27;20391;-76
2022/03/30 07:38:05;;;;;;;4.05;0.80;;;6.60;99.90;;;;;;5128268;27;20923;-76
2022/03/30 07:40:31;;;;;;;3.83;0.80;;;6.60;99.90;;;;;;5129789;27;20414;-76
2022/03/30 07:42:57;;;;;;;5.22;1.00;;;6.70;99.90;;;;;;5129046;27;20410;-76
2022/03/30 07:45:24;;;;;;;4.70;0.80;;;6.70;99.90;;;;;;5110871;27;20410;-76
2022/03/30 07:47:51;;;;;;;5.78;0.85;;;6.80;99.90;;;;;;5110761;27;20406;-76
2022/03/30 07:50:17;;;;;;;5.68;0.85;;;6.80;99.90;;;;;;5129328;27;20423;-75
2022/03/30 07:52:43;;;;;;;4.57;0.80;;;6.80;99.90;;;;;;5129315;27;20509;-76
2022/03/30 07:55:11;;;;;;;7.47;1.25;;;6.80;99.90;;;;;;5127197;27;20403;-76
2022/03/30 07:57:39;;;;;;;5.85;1.10;;;6.80;99.90;;;;;;5129558;27;20473;-76
2022/03/30 08:00:07;;;;;;;5.05;1.05;;;6.80;99.90;;;;;;5110877;27;20405;-76
2022/03/30 08:02:33;;;;;;;5.43;1.03;;;6.80;99.90;;;;;;5110553;27;20904;-76
2022/03/30 08:04:59;;;;;;;8.57;1.40;;;6.80;99.90;;;;;;5110669;27;20395;-76
2022/03/30 08:07:29;;;;;;;6.13;0.90;;;6.70;99.90;;;;;;5128512;27;20824;-76
2022/03/30 08:09:55;;;;;;;5.18;0.95;;;6.80;99.90;;;;;;5129210;27;20431;-76
2022/03/30 08:12:21;;;;;;;6.55;1.10;;;6.80;99.90;;;;;;5110224;27;20412;-76
2022/03/30 08:14:47;;;;;;;6.45;1.33;;;6.80;99.90;;;;;;5128577;27;20936;-76
2022/03/30 08:17:13;;;;;;;5.75;1.10;;;6.90;99.90;;;;;;5128704;27;20399;-76
2022/03/30 08:19:39;;;;;;;5.13;0.98;;;6.90;99.90;;;;;;5129008;27;20749;-76
2022/03/30 08:24:50;;;;;;;6.53;1.00;;;7.00;99.90;;;;;;5128645;27;20851;-76
2022/03/30 08:27:17;;;;;;;7.50;1.30;;;7.10;99.90;;;;;;5110459;28;20395;-76
2022/03/30 08:29:44;;;;;;;3.42;1.00;;;7.20;99.90;;;;;;5110512;27;20470;-76
2022/03/30 08:32:11;;;;;;;4.50;1.10;;;7.20;99.90;;;;;;5128257;27;20394;-76
2022/03/30 08:34:38;;;;;;;6.55;1.25;;;7.20;99.90;;;;;;5128817;28;20401;-76
2022/03/30 08:37:04;;;;;;;5.45;1.15;;;7.20;99.90;;;;;;5110600;28;20809;-76
2022/03/30 08:39:30;;;;;;;4.95;1.13;;;7.20;99.90;;;;;;5110105;28;20676;-76
2022/03/30 08:41:56;;;;;;;4.30;1.08;;;7.30;99.90;;;;;;5128209;28;20485;-76
2022/03/30 08:44:21;;;;;;;6.97;1.27;;;7.30;99.90;;;;;;5110264;28;20395;-76
2022/03/30 08:46:48;;;;;;;4.97;1.00;;;7.20;99.90;;;;;;5110017;28;20402;-76
2022/03/30 08:49:15;;;;;;;5.27;1.10;;;7.20;99.90;;;;;;5110100;28;20482;-76
2022/03/30 08:51:41;;;;;;;3.67;1.10;;;7.10;99.90;;;;;;5128449;28;20523;-76
2022/03/30 08:54:12;;;;;;;4.45;1.17;;;7.10;99.90;;;;;;5109750;28;20452;-76
2022/03/30 08:56:39;;;;;;;8.13;1.60;;;7.10;99.90;;;;;;5128490;28;20482;-76
2022/03/30 08:59:06;;;;;;;4.90;1.30;;;7.20;99.90;;;;;;5127895;28;20474;-76
2022/03/30 09:01:36;;;;;;;4.88;0.90;;;7.30;99.90;;;;;;5128111;28;20405;-76
2022/03/30 09:04:04;;;;;;;4.57;1.00;;;7.40;99.90;;;;;;5115490;28;20424;-76
2022/03/30 09:06:45;;;;;;;4.90;1.10;;;7.50;99.90;;;;;;5107376;28;21025;-76
2022/03/30 09:09:11;;;;;;;9.20;1.38;;;7.60;99.90;;;;;;5093106;28;20937;-76
2022/03/30 09:11:44;;;;;;;5.18;0.98;;;7.60;99.90;;;;;;5093759;28;20902;-76
2022/03/30 09:14:12;;;;;;;3.00;0.70;;;7.80;99.90;;;;;;5093663;28;20411;-76
2022/03/30 09:16:46;;;;;;;4.85;1.05;;;7.90;99.90;;;;;;5094140;28;20440;-76
2022/03/30 09:19:15;;;;;;;4.20;0.77;;;7.90;99.90;;;;;;5111176;28;20408;-76
2022/03/30 09:21:47;;;;;;;8.70;1.30;;;8.10;99.90;;;;;;5111385;28;20488;-76
2022/03/30 09:24:16;;;;;;;4.10;0.87;;;8.20;99.90;;;;;;5111729;28;20392;-76
2022/03/30 09:26:42;;;;;;;5.57;1.00;;;8.40;99.90;;;;;;5111373;28;20404;-76
2022/03/30 09:29:09;;;;;;;5.38;1.10;;;8.50;99.90;;;;;;5111158;28;20993;-76
2022/03/30 09:31:36;;;;;;;4.53;0.80;;;8.60;99.90;;;;;;5111533;28;20398;-76
2022/03/30 09:34:07;;;;;;;5.13;0.88;;;8.90;99.90;;;;;;5092963;28;20404;-76
2022/03/30 09:36:35;;;;;;;4.20;0.80;;;9.00;99.90;;;;;;5111327;28;20399;-76
2022/03/30 09:39:02;;;;;;;4.93;0.70;;;9.10;99.90;;;;;;5076813;28;21084;-76
2022/03/30 09:41:48;;;;;;;2.65;0.70;;;8.90;99.90;;;;;;5088153;28;20506;-76
2022/03/30 09:44:14;;;;;;;3.50;0.70;;;8.90;99.90;;;;;;5089836;28;20413;-76
2022/03/30 09:46:58;;;;;;;4.15;0.93;;;9.00;99.90;;;;;;5071798;28;20440;-76
2022/03/30 09:49:44;;;;;;;3.47;0.65;;;9.10;99.90;;;;;;5089268;28;20463;-77
2022/03/30 09:52:18;;;;;;;6.10;0.90;;;9.10;99.90;;;;;;5089061;28;20490;-77
2022/03/30 09:54:49;;;;;;;3.75;0.70;;;9.20;99.90;;;;;;5089836;28;20788;-76
2022/03/30 09:57:24;;;;;;;4.78;0.70;;;9.40;99.90;;;;;;5089672;28;20410;-76
2022/03/30 10:00:12;;;;;;;4.63;0.60;;;9.50;99.90;;;;;;5088212;28;20405;-76
2022/03/30 10:02:40;;;;;;;3.60;0.75;;;9.20;99.90;;;;;;5090840;28;20418;-76
2022/03/30 10:05:07;;;;;;;5.00;0.97;;;9.10;99.90;;;;;;5110004;27;20404;-76
2022/03/30 10:07:34;;;;;;;4.95;0.60;;;9.10;99.90;;;;;;5109311;28;20412;-76
2022/03/30 10:10:00;;;;;;;6.00;0.50;;;9.30;99.90;;;;;;5109744;28;20471;-76
2022/03/30 10:12:27;;;;;;;3.60;0.60;;;9.80;99.90;;;;;;5109591;28;20396;-76
2022/03/30 10:14:54;;;;;;;4.50;0.67;;;10.20;99.90;;;;;;5110607;28;20483;-76
2022/03/30 10:17:22;;;;;;;5.57;0.93;;;10.80;99.90;;;;;;5109851;28;20789;-77
2022/03/30 10:19:49;;;;;;;3.78;0.65;;;11.40;99.90;;;;;;5110417;28;20443;-77
2022/03/30 10:22:46;;;;;;;7.68;0.85;;;11.80;99.90;;;;;;5110806;28;20160;-77
2022/03/30 10:25:33;;;;;;;3.80;0.50;;;12.20;99.90;;;;;;5110358;28;20044;-77
2022/03/30 10:28:30;;;;;;;5.03;0.60;;;12.40;99.90;;;;;;5110666;28;20406;-77
2022/03/30 10:30:57;;;;;;;4.85;0.43;;;12.80;99.90;;;;;;5111494;27;20582;-76
2022/03/30 10:33:33;;;;;;;;;;;13.00;99.00;;;;;;5111009;28;20517;-76
2022/03/30 10:36:18;;;;;;;;;;;13.00;97.20;;;;;;5111212;28;20406;-76
2022/03/30 10:39:02;;;;;;;;;;;12.50;96.40;;;;;;5110150;28;19934;-76
2022/03/30 10:41:46;;;;;;;;;;;11.70;96.40;;;;;;5119518;27;19930;-76
2022/03/30 10:44:30;;;;;;;;;;;11.00;96.80;;;;;;5132125;27;19929;-77
2022/03/30 10:47:26;;;;;;;;;;;10.40;97.60;;;;;;5113489;27;19919;-77
2022/03/30 10:49:56;;;;;;;;;;;10.10;98.40;;;;;;5091858;27;19945;-76
2022/03/30 10:52:25;;;;;;;;;;;9.90;96.60;;;;;;5113553;27;19923;-76
2022/03/30 10:54:55;;;;;;;;;;;9.80;96.90;;;;;;5113410;27;20281;-76
2022/03/30 10:57:39;;;;;;;;;;;10.20;97.10;;;;;;5096350;27;19927;-76
2022/03/30 11:00:06;;;;;;;;;;;10.60;96.60;;;;;;5113603;27;19964;-77
2022/03/30 11:02:50;;;;;;;;;;;10.70;94.60;;;;;;5113179;27;20572;-77
2022/03/30 11:05:28;;;;;;;;;;;10.40;94.60;;;;;;5092845;28;19920;-77
2022/03/30 11:07:53;;;;;;;;;;;10.10;95.20;;;;;;5092987;28;19966;-77
2022/03/30 11:10:21;;;;;;;;;;;10.00;95.60;;;;;;5110381;28;19974;-77
2022/03/30 11:12:56;;;;;;;;;;;10.00;94.80;;;;;;5092123;28;20006;-77
2022/03/30 11:15:22;;;;;;;;;;;10.00;95.40;;;;;;5092552;28;19930;-77
2022/03/30 11:17:48;;;;;;;;;;;10.10;95.40;;;;;;5075017;28;20307;-77
2022/03/30 11:20:19;;;;;;;;;;;10.20;96.00;;;;;;5092222;28;20364;-77
2022/03/30 11:22:46;;;;;;;;;;;10.40;95.90;;;;;;5091845;28;19924;-78
2022/03/30 11:25:13;;;;;;;;;;;10.70;95.70;;;;;;5109711;28;19976;-77
2022/03/30 11:27:39;;;;;;;;;;;11.00;95.40;;;;;;5092106;28;20025;-77
2022/03/30 11:30:15;;;;;;;;;;;11.30;94.70;;;;;;5109282;28;19966;-77
2022/03/30 11:32:42;;;;;;;;;;;11.40;94.20;;;;;;5110404;28;19955;-77
2022/03/30 11:35:10;;;;;;;;;;;11.40;94.40;;;;;;5110972;28;20010;-77
2022/03/30 11:37:37;;;;;;;;;;;11.70;93.70;;;;;;5110978;28;20274;-75
2022/03/30 11:40:04;;;;;;;;;;;11.80;93.30;;;;;;5110868;28;20437;-75
2022/03/30 11:42:30;;;;;;;;;;;11.80;93.40;;;;;;5092320;28;19920;-75
2022/03/30 11:45:13;;;;;;;;;;;11.80;92.30;;;;;;5110219;28;20286;-75
2022/03/30 11:47:52;;;;;;;;;;;11.70;91.70;;;;;;5075343;28;20010;-75
2022/03/30 11:50:31;;;;;;;;;;;11.70;92.70;;;;;;5092153;28;20061;-75
2022/03/30 11:53:00;;;;;;;;;;;11.90;91.80;;;;;;5092247;28;19926;-75
2022/03/30 11:55:26;;;;;;;;;;;11.90;90.70;;;;;;5092308;28;19919;-75
2022/03/30 11:57:52;;;;;;;;;;;11.90;91.50;;;;;;5092123;28;19926;-75
2022/03/30 12:00:17;;;;;;;;;;;11.90;91.20;;;;;;5092132;28;20309;-75
2022/03/30 12:02:44;;;;;;;;;;;11.90;89.90;;;;;;5093906;27;19928;-75
2022/03/30 12:05:09;;;;;;;;;;;11.80;90.00;;;;;;5112966;27;20129;-75
2022/03/30 12:07:36;;;;;;;;;;;11.80;90.50;;;;;;5095229;27;19927;-75
2022/03/30 12:10:03;;;;;;;;;;;11.90;90.50;;;;;;5130648;27;20017;-75
2022/03/30 12:12:36;;;;;;;;;;;12.00;88.30;;;;;;5112547;27;19923;-75
2022/03/30 12:15:07;;;;;;;;;;;11.90;87.80;;;;;;5130947;27;19920;-74
2022/03/30 12:17:33;;;;;;;;;;;11.80;85.80;;;;;;5130303;27;19925;-75
2022/03/30 12:20:00;;;;;;;;;;;11.90;89.80;;;;;;5130697;27;20304;-75
2022/03/30 12:22:26;;;;;;;;;;;12.10;88.00;;;;;;5112087;28;20438;-75
2022/03/30 12:24:52;;;;;;;;;;;12.10;86.90;;;;;;5095442;27;19919;-75
2022/03/30 12:27:17;;;;;;;;;;;12.10;87.60;;;;;;5130532;27;19920;-75
2022/03/30 12:29:44;;;;;;;;;;;12.10;85.50;;;;;;5111897;27;20698;-75
2022/03/30 12:32:11;;;;;;;;;;;12.10;85.10;;;;;;5130461;27;19919;-75
2022/03/30 12:34:39;;;;;;;;;;;12.20;85.20;;;;;;5130853;27;19919;-75
2022/03/30 12:37:06;;;;;;;;;;;12.30;85.00;;;;;;5130583;28;20014;-75
2022/03/30 12:39:38;;;;;;;;;;;12.60;85.10;;;;;;5111657;28;19950;-75
2022/03/30 12:42:04;;;;;;;;;;;12.90;83.80;;;;;;5132569;27;19943;-76
2022/03/30 12:44:31;;;;;;;;;;;13.30;83.20;;;;;;5116260;27;20753;-75
2022/03/30 12:46:58;;;;;;;;;;;13.50;80.50;;;;;;5134892;27;19919;-75
2022/03/30 12:49:39;;;;;;;;;;;13.70;79.20;;;;;;5116161;27;20308;-75
2022/03/30 12:52:11;;;;;;;;;;;13.90;79.40;;;;;;5115671;27;19931;-76
2022/03/30 12:54:37;;;;;;;;;;;14.10;76.70;;;;;;5133775;27;19919;-76
2022/03/30 12:57:03;;;;;;;;;;;13.90;73.80;;;;;;5116044;27;19927;-75
2022/03/30 12:59:28;;;;;;;;;;;13.80;75.20;;;;;;5134594;27;19920;-75
2022/03/30 13:01:54;;;;;;;;;;;13.70;77.10;;;;;;5116083;27;20396;-75
2022/03/30 13:04:28;;;;;;;;;;;14.00;76.90;;;;;;5118840;27;20343;-76
2022/03/30 13:07:07;;;;;;;;;;;14.30;75.20;;;;;;5113580;28;19923;-75
2022/03/30 13:09:33;;;;;;;;;;;14.50;73.40;;;;;;5095606;28;19923;-76
2022/03/30 13:11:59;;;;;;;;;;;14.90;73.00;;;;;;5113873;28;20576;-76
2022/03/30 13:14:27;;;;;;;;;;;15.10;70.90;;;;;;5094909;28;19919;-76
2022/03/30 13:16:57;;;;;;;;;;;15.30;72.20;;;;;;5095017;28;19972;-76
2022/03/30 13:19:24;;;;;;;;;;;15.30;71.70;;;;;;5113538;28;19919;-75
2022/03/30 13:21:50;;;;;;;;;;;15.20;73.40;;;;;;5095306;28;20390;-76
2022/03/30 13:24:17;;;;;;;;;;;15.20;71.90;;;;;;5095065;28;20506;-75
2022/03/30 13:26:43;;;;;;;;;;;15.30;70.00;;;;;;5095100;28;19919;-75